Glasgo, Connecticut
Current Conditions -  °F | °C
As of 9:53 AM on Wednesday 26 Nov 2014 (Local Time) from KWST Reporting Station
Light Rain Light Rain  
Wind Chill:   Ceiling: 3300
Heat Index:   Visibility: 4mi
Dew Point:   Wind: 8mph
Humidity: 89%   Direction: 40°NE
Pressure: 30.11"   Gusts: NA
Location:  41.56°N, 71.89°W
Report Text: KWST 261453Z AUTO 04007KT 4SM -RA BR BKN033 OVC070 04/03 A3011 RMK AO2 SLP195 P0003 60003 T00440028 58012
Loading
Personal Weather Stations






























Interactive Weather Map New forecast layout! Learn more

10-Day Weather Forecast

Advertisements
Track Severe Weather on mobile